sensor_id;sensor_type;location;lat;lon;timestamp;temperature;humidity
997;DHT22;487;50.126;8.698;2023-07-09T04:03:13;23.50;1.00
997;DHT22;487;50.126;8.698;2023-07-09T04:05:41;23.40;1.00
997;DHT22;487;50.126;8.698;2023-07-09T04:08:09;23.40;1.00
997;DHT22;487;50.126;8.698;2023-07-09T04:13:05;23.40;1.00
997;DHT22;487;50.126;8.698;2023-07-09T04:37:52;23.90;1.00
997;DHT22;487;50.126;8.698;2023-07-09T04:45:18;23.90;1.00
997;DHT22;487;50.126;8.698;2023-07-09T04:47:45;23.80;1.00
997;DHT22;487;50.126;8.698;2023-07-09T05:00:09;23.70;1.00
997;DHT22;487;50.126;8.698;2023-07-09T05:12:33;23.70;1.00
997;DHT22;487;50.126;8.698;2023-07-09T05:29:51;24.00;1.00
997;DHT22;487;50.126;8.698;2023-07-09T06:04:30;24.30;1.00
997;DHT22;487;50.126;8.698;2023-07-09T06:06:58;24.40;1.00
997;DHT22;487;50.126;8.698;2023-07-09T06:09:26;24.50;1.00
997;DHT22;487;50.126;8.698;2023-07-09T06:11:54;24.50;1.00
997;DHT22;487;50.126;8.698;2023-07-09T06:19:19;24.70;1.00
997;DHT22;487;50.126;8.698;2023-07-09T06:21:48;24.70;1.00
997;DHT22;487;50.126;8.698;2023-07-09T06:24:16;24.80;1.00
997;DHT22;487;50.126;8.698;2023-07-09T06:31:40;24.90;1.00
997;DHT22;487;50.126;8.698;2023-07-09T06:34:09;29.30;1.00
997;DHT22;487;50.126;8.698;2023-07-09T06:36:37;25.00;1.00
997;DHT22;487;50.126;8.698;2023-07-09T06:39:06;25.00;1.00
997;DHT22;487;50.126;8.698;2023-07-09T06:44:05;25.10;1.00
997;DHT22;487;50.126;8.698;2023-07-09T06:46:34;25.20;1.00
997;DHT22;487;50.126;8.698;2023-07-09T06:49:03;25.20;1.00
997;DHT22;487;50.126;8.698;2023-07-09T06:54:00;25.30;1.00
997;DHT22;487;50.126;8.698;2023-07-09T06:56:29;25.40;1.00
997;DHT22;487;50.126;8.698;2023-07-09T06:58:57;25.50;1.00
997;DHT22;487;50.126;8.698;2023-07-09T07:03:53;25.60;1.00
997;DHT22;487;50.126;8.698;2023-07-09T07:06:21;25.70;1.00
997;DHT22;487;50.126;8.698;2023-07-09T07:08:50;25.70;1.00
997;DHT22;487;50.126;8.698;2023-07-09T07:13:47;25.80;1.00
997;DHT22;487;50.126;8.698;2023-07-09T07:16:18;25.90;1.00
997;DHT22;487;50.126;8.698;2023-07-09T07:18:46;26.00;1.00
997;DHT22;487;50.126;8.698;2023-07-09T07:21:14;26.00;1.00
997;DHT22;487;50.126;8.698;2023-07-09T07:28:38;26.20;1.00
997;DHT22;487;50.126;8.698;2023-07-09T07:31:08;26.30;1.00
997;DHT22;487;50.126;8.698;2023-07-09T07:33:39;26.20;1.00
997;DHT22;487;50.126;8.698;2023-07-09T07:36:07;26.40;1.00
997;DHT22;487;50.126;8.698;2023-07-09T07:41:07;26.40;1.00
997;DHT22;487;50.126;8.698;2023-07-09T07:43:35;26.50;1.00
997;DHT22;487;50.126;8.698;2023-07-09T07:48:33;26.70;1.00
997;DHT22;487;50.126;8.698;2023-07-09T07:51:01;26.80;1.00
997;DHT22;487;50.126;8.698;2023-07-09T07:53:30;26.90;1.00
997;DHT22;487;50.126;8.698;2023-07-09T07:55:58;26.90;1.00
997;DHT22;487;50.126;8.698;2023-07-09T07:58:29;26.90;1.00
997;DHT22;487;50.126;8.698;2023-07-09T08:03:26;27.10;1.00
997;DHT22;487;50.126;8.698;2023-07-09T08:05:55;27.20;1.00
997;DHT22;487;50.126;8.698;2023-07-09T08:11:00;27.40;1.00
997;DHT22;487;50.126;8.698;2023-07-09T08:16:00;27.50;1.00
997;DHT22;487;50.126;8.698;2023-07-09T08:20:59;27.60;1.00
997;DHT22;487;50.126;8.698;2023-07-09T08:23:27;27.70;1.00
997;DHT22;487;50.126;8.698;2023-07-09T08:25:56;27.80;1.00
997;DHT22;487;50.126;8.698;2023-07-09T08:28:25;27.80;1.00
997;DHT22;487;50.126;8.698;2023-07-09T08:30:53;27.90;1.00
997;DHT22;487;50.126;8.698;2023-07-09T08:33:22;28.00;1.00
997;DHT22;487;50.126;8.698;2023-07-09T08:35:51;28.00;1.00
997;DHT22;487;50.126;8.698;2023-07-09T08:38:21;28.00;1.00
997;DHT22;487;50.126;8.698;2023-07-09T08:40:56;28.00;1.00
997;DHT22;487;50.126;8.698;2023-07-09T08:43:33;28.10;1.00
997;DHT22;487;50.126;8.698;2023-07-09T08:46:07;28.20;1.00
997;DHT22;487;50.126;8.698;2023-07-09T08:48:39;28.20;1.00
997;DHT22;487;50.126;8.698;2023-07-09T08:51:13;28.20;1.00
997;DHT22;487;50.126;8.698;2023-07-09T08:53:48;28.10;1.00
997;DHT22;487;50.126;8.698;2023-07-09T08:56:17;28.20;1.00
997;DHT22;487;50.126;8.698;2023-07-09T08:58:46;28.30;1.00
997;DHT22;487;50.126;8.698;2023-07-09T09:01:19;28.40;1.00
997;DHT22;487;50.126;8.698;2023-07-09T09:03:49;28.50;1.00
997;DHT22;487;50.126;8.698;2023-07-09T09:06:20;28.60;1.00
997;DHT22;487;50.126;8.698;2023-07-09T09:09:12;28.70;1.00
997;DHT22;487;50.126;8.698;2023-07-09T09:11:44;28.80;1.00
997;DHT22;487;50.126;8.698;2023-07-09T09:14:21;28.90;1.00
997;DHT22;487;50.126;8.698;2023-07-09T09:16:52;29.00;1.00
997;DHT22;487;50.126;8.698;2023-07-09T09:19:23;29.10;1.00
997;DHT22;487;50.126;8.698;2023-07-09T09:21:57;29.20;1.00
997;DHT22;487;50.126;8.698;2023-07-09T09:24:31;29.30;1.00
997;DHT22;487;50.126;8.698;2023-07-09T09:27:03;29.30;1.00
997;DHT22;487;50.126;8.698;2023-07-09T09:29:31;29.40;1.00
997;DHT22;487;50.126;8.698;2023-07-09T09:32:10;29.40;1.00
997;DHT22;487;50.126;8.698;2023-07-09T09:34:39;29.50;1.00
997;DHT22;487;50.126;8.698;2023-07-09T09:37:10;29.60;1.00
997;DHT22;487;50.126;8.698;2023-07-09T09:39:40;29.70;1.00
997;DHT22;487;50.126;8.698;2023-07-09T09:42:10;29.80;1.00
997;DHT22;487;50.126;8.698;2023-07-09T09:44:43;29.90;1.00
997;DHT22;487;50.126;8.698;2023-07-09T09:47:12;30.00;1.00
997;DHT22;487;50.126;8.698;2023-07-09T09:49:40;30.10;1.00
997;DHT22;487;50.126;8.698;2023-07-09T09:52:12;30.20;1.00
997;DHT22;487;50.126;8.698;2023-07-09T09:54:48;30.20;1.00
997;DHT22;487;50.126;8.698;2023-07-09T09:57:20;30.30;1.00
997;DHT22;487;50.126;8.698;2023-07-09T09:59:49;30.30;1.00
997;DHT22;487;50.126;8.698;2023-07-09T10:02:19;30.50;1.00
997;DHT22;487;50.126;8.698;2023-07-09T10:04:48;30.50;1.00
997;DHT22;487;50.126;8.698;2023-07-09T10:07:22;30.60;1.00
997;DHT22;487;50.126;8.698;2023-07-09T10:09:53;30.50;1.00
997;DHT22;487;50.126;8.698;2023-07-09T10:12:36;30.60;1.00
997;DHT22;487;50.126;8.698;2023-07-09T10:15:17;30.70;1.00
997;DHT22;487;50.126;8.698;2023-07-09T10:17:54;30.70;1.00
997;DHT22;487;50.126;8.698;2023-07-09T10:20:27;30.90;1.00
997;DHT22;487;50.126;8.698;2023-07-09T10:23:02;31.00;1.00
997;DHT22;487;50.126;8.698;2023-07-09T10:25:35;31.10;1.00
997;DHT22;487;50.126;8.698;2023-07-09T10:28:27;31.10;1.00
997;DHT22;487;50.126;8.698;2023-07-09T10:31:05;31.20;1.00
997;DHT22;487;50.126;8.698;2023-07-09T10:33:45;31.20;1.00
997;DHT22;487;50.126;8.698;2023-07-09T10:36:26;31.20;1.00
997;DHT22;487;50.126;8.698;2023-07-09T10:39:00;31.30;1.00
997;DHT22;487;50.126;8.698;2023-07-09T10:41:31;31.40;1.00
997;DHT22;487;50.126;8.698;2023-07-09T10:44:08;31.40;1.00
997;DHT22;487;50.126;8.698;2023-07-09T10:46:40;31.50;1.00
997;DHT22;487;50.126;8.698;2023-07-09T10:49:13;28.80;1.00
997;DHT22;487;50.126;8.698;2023-07-09T10:51:45;31.70;1.00
997;DHT22;487;50.126;8.698;2023-07-09T10:54:21;31.80;1.00
997;DHT22;487;50.126;8.698;2023-07-09T10:56:57;31.80;1.00
997;DHT22;487;50.126;8.698;2023-07-09T10:59:29;31.90;1.00
997;DHT22;487;50.126;8.698;2023-07-09T11:02:04;32.00;1.00
997;DHT22;487;50.126;8.698;2023-07-09T11:04:37;32.10;1.00
997;DHT22;487;50.126;8.698;2023-07-09T11:07:11;32.10;1.00
997;DHT22;487;50.126;8.698;2023-07-09T11:09:42;32.10;1.00
997;DHT22;487;50.126;8.698;2023-07-09T11:12:16;32.00;1.00
997;DHT22;487;50.126;8.698;2023-07-09T11:14:48;32.20;1.00
997;DHT22;487;50.126;8.698;2023-07-09T11:17:19;32.20;1.00
997;DHT22;487;50.126;8.698;2023-07-09T11:19:49;32.30;1.00
997;DHT22;487;50.126;8.698;2023-07-09T11:22:22;32.20;1.00
997;DHT22;487;50.126;8.698;2023-07-09T11:24:52;32.20;1.00
997;DHT22;487;50.126;8.698;2023-07-09T11:27:25;32.30;1.00
997;DHT22;487;50.126;8.698;2023-07-09T11:29:58;32.30;1.00
997;DHT22;487;50.126;8.698;2023-07-09T11:32:27;32.30;1.00
997;DHT22;487;50.126;8.698;2023-07-09T11:35:06;32.30;1.00
997;DHT22;487;50.126;8.698;2023-07-09T11:37:44;32.40;1.00
997;DHT22;487;50.126;8.698;2023-07-09T11:40:14;32.50;1.00
997;DHT22;487;50.126;8.698;2023-07-09T11:42:52;32.50;1.00
997;DHT22;487;50.126;8.698;2023-07-09T11:45:24;32.70;1.00
997;DHT22;487;50.126;8.698;2023-07-09T11:47:57;32.80;1.00
997;DHT22;487;50.126;8.698;2023-07-09T11:50:33;32.80;1.00
997;DHT22;487;50.126;8.698;2023-07-09T11:53:19;32.90;1.00
997;DHT22;487;50.126;8.698;2023-07-09T11:55:50;33.00;1.00
997;DHT22;487;50.126;8.698;2023-07-09T11:58:19;33.20;1.00
997;DHT22;487;50.126;8.698;2023-07-09T12:00:48;33.30;1.00
997;DHT22;487;50.126;8.698;2023-07-09T12:03:23;33.40;1.00
997;DHT22;487;50.126;8.698;2023-07-09T12:05:52;33.40;1.00
997;DHT22;487;50.126;8.698;2023-07-09T12:08:26;33.40;1.00
997;DHT22;487;50.126;8.698;2023-07-09T12:10:54;33.50;1.00
997;DHT22;487;50.126;8.698;2023-07-09T12:13:24;33.60;1.00
997;DHT22;487;50.126;8.698;2023-07-09T12:15:52;33.70;1.00
997;DHT22;487;50.126;8.698;2023-07-09T12:18:19;33.70;1.00
997;DHT22;487;50.126;8.698;2023-07-09T12:20:49;33.60;1.00
997;DHT22;487;50.126;8.698;2023-07-09T12:23:22;33.70;1.00
997;DHT22;487;50.126;8.698;2023-07-09T12:25:52;33.60;1.00
997;DHT22;487;50.126;8.698;2023-07-09T12:28:22;33.80;1.00
997;DHT22;487;50.126;8.698;2023-07-09T12:30:52;33.80;1.00
997;DHT22;487;50.126;8.698;2023-07-09T12:33:21;33.90;1.00
997;DHT22;487;50.126;8.698;2023-07-09T12:35:55;34.00;1.00
997;DHT22;487;50.126;8.698;2023-07-09T12:38:25;34.10;1.00
997;DHT22;487;50.126;8.698;2023-07-09T12:40:54;34.20;1.00
997;DHT22;487;50.126;8.698;2023-07-09T12:43:27;34.20;1.00
997;DHT22;487;50.126;8.698;2023-07-09T12:45:59;34.30;1.00
997;DHT22;487;50.126;8.698;2023-07-09T12:48:28;34.30;1.00
997;DHT22;487;50.126;8.698;2023-07-09T12:50:58;34.30;1.00
997;DHT22;487;50.126;8.698;2023-07-09T12:53:28;34.30;1.00
997;DHT22;487;50.126;8.698;2023-07-09T12:55:59;34.30;1.00
997;DHT22;487;50.126;8.698;2023-07-09T12:58:29;34.30;1.00
997;DHT22;487;50.126;8.698;2023-07-09T13:01:04;34.40;1.00
997;DHT22;487;50.126;8.698;2023-07-09T13:03:33;34.50;1.00
997;DHT22;487;50.126;8.698;2023-07-09T13:06:03;34.50;1.00
997;DHT22;487;50.126;8.698;2023-07-09T13:08:41;34.50;1.00
997;DHT22;487;50.126;8.698;2023-07-09T13:11:14;34.70;1.00
997;DHT22;487;50.126;8.698;2023-07-09T13:13:52;34.70;1.00
997;DHT22;487;50.126;8.698;2023-07-09T13:16:21;34.80;1.00
997;DHT22;487;50.126;8.698;2023-07-09T13:18:49;34.90;1.00
997;DHT22;487;50.126;8.698;2023-07-09T13:21:19;34.90;1.00
997;DHT22;487;50.126;8.698;2023-07-09T13:23:48;34.90;1.00
997;DHT22;487;50.126;8.698;2023-07-09T13:26:16;34.70;1.00
997;DHT22;487;50.126;8.698;2023-07-09T13:28:44;34.70;1.00
997;DHT22;487;50.126;8.698;2023-07-09T13:31:15;34.70;1.00
997;DHT22;487;50.126;8.698;2023-07-09T13:33:49;34.70;1.00
997;DHT22;487;50.126;8.698;2023-07-09T13:36:17;34.70;1.00
997;DHT22;487;50.126;8.698;2023-07-09T13:38:45;34.70;1.00
997;DHT22;487;50.126;8.698;2023-07-09T13:41:16;34.70;1.00
997;DHT22;487;50.126;8.698;2023-07-09T13:43:46;34.90;1.00
997;DHT22;487;50.126;8.698;2023-07-09T13:46:15;34.90;1.00
997;DHT22;487;50.126;8.698;2023-07-09T13:48:44;34.90;1.00
997;DHT22;487;50.126;8.698;2023-07-09T13:51:15;35.00;1.00
997;DHT22;487;50.126;8.698;2023-07-09T13:53:44;34.80;1.00
997;DHT22;487;50.126;8.698;2023-07-09T13:56:12;34.90;1.00
997;DHT22;487;50.126;8.698;2023-07-09T13:58:40;35.10;1.00
997;DHT22;487;50.126;8.698;2023-07-09T14:01:11;35.20;1.00
997;DHT22;487;50.126;8.698;2023-07-09T14:03:40;35.20;1.00
997;DHT22;487;50.126;8.698;2023-07-09T14:06:12;35.40;1.00
997;DHT22;487;50.126;8.698;2023-07-09T14:08:40;35.40;1.00
997;DHT22;487;50.126;8.698;2023-07-09T14:11:10;35.60;1.00
997;DHT22;487;50.126;8.698;2023-07-09T14:13:39;35.60;1.00
997;DHT22;487;50.126;8.698;2023-07-09T14:16:09;35.70;1.00
997;DHT22;487;50.126;8.698;2023-07-09T14:18:38;35.70;1.00
997;DHT22;487;50.126;8.698;2023-07-09T14:21:12;35.80;1.00
997;DHT22;487;50.126;8.698;2023-07-09T14:23:40;35.80;1.00
997;DHT22;487;50.126;8.698;2023-07-09T14:28:37;35.90;1.00
997;DHT22;487;50.126;8.698;2023-07-09T14:31:19;35.90;1.00
997;DHT22;487;50.126;8.698;2023-07-09T14:33:47;35.90;1.00
997;DHT22;487;50.126;8.698;2023-07-09T14:36:16;35.80;1.00
997;DHT22;487;50.126;8.698;2023-07-09T14:38:44;35.80;1.00
997;DHT22;487;50.126;8.698;2023-07-09T14:41:19;35.80;1.00
997;DHT22;487;50.126;8.698;2023-07-09T14:43:48;35.80;1.00
997;DHT22;487;50.126;8.698;2023-07-09T14:46:16;35.70;1.00
997;DHT22;487;50.126;8.698;2023-07-09T14:48:44;35.60;1.00
997;DHT22;487;50.126;8.698;2023-07-09T14:51:14;35.60;1.00
997;DHT22;487;50.126;8.698;2023-07-09T14:53:44;35.50;1.00
997;DHT22;487;50.126;8.698;2023-07-09T14:56:13;35.60;1.00
997;DHT22;487;50.126;8.698;2023-07-09T14:58:41;35.60;1.00
997;DHT22;487;50.126;8.698;2023-07-09T15:01:11;35.60;1.00
997;DHT22;487;50.126;8.698;2023-07-09T15:03:39;35.60;1.00
997;DHT22;487;50.126;8.698;2023-07-09T15:06:07;35.60;1.00
997;DHT22;487;50.126;8.698;2023-07-09T15:08:35;35.50;1.00
997;DHT22;487;50.126;8.698;2023-07-09T15:11:05;35.50;1.00
997;DHT22;487;50.126;8.698;2023-07-09T15:13:35;35.40;1.00
997;DHT22;487;50.126;8.698;2023-07-09T15:16:04;35.40;1.00
997;DHT22;487;50.126;8.698;2023-07-09T15:18:33;35.40;1.00
997;DHT22;487;50.126;8.698;2023-07-09T15:21:03;35.30;1.00
997;DHT22;487;50.126;8.698;2023-07-09T15:23:36;35.30;1.00
997;DHT22;487;50.126;8.698;2023-07-09T15:26:13;35.20;1.00
997;DHT22;487;50.126;8.698;2023-07-09T15:28:41;35.20;1.00
997;DHT22;487;50.126;8.698;2023-07-09T15:31:10;35.10;1.00
997;DHT22;487;50.126;8.698;2023-07-09T15:33:38;35.10;1.00
997;DHT22;487;50.126;8.698;2023-07-09T15:36:09;35.10;1.00
997;DHT22;487;50.126;8.698;2023-07-09T15:38:37;35.10;1.00
997;DHT22;487;50.126;8.698;2023-07-09T15:41:12;35.00;1.00
997;DHT22;487;50.126;8.698;2023-07-09T15:43:42;35.00;1.00
997;DHT22;487;50.126;8.698;2023-07-09T15:46:16;34.90;1.00
997;DHT22;487;50.126;8.698;2023-07-09T15:48:45;34.90;1.00
997;DHT22;487;50.126;8.698;2023-07-09T15:51:14;34.80;1.00
997;DHT22;487;50.126;8.698;2023-07-09T15:53:41;34.70;1.00
997;DHT22;487;50.126;8.698;2023-07-09T15:56:16;34.80;1.00
997;DHT22;487;50.126;8.698;2023-07-09T15:58:45;34.80;1.00
997;DHT22;487;50.126;8.698;2023-07-09T16:01:15;34.70;1.00
997;DHT22;487;50.126;8.698;2023-07-09T16:03:45;34.70;1.00
997;DHT22;487;50.126;8.698;2023-07-09T16:06:14;34.60;1.00
997;DHT22;487;50.126;8.698;2023-07-09T16:08:42;34.60;1.00
997;DHT22;487;50.126;8.698;2023-07-09T16:11:15;34.10;1.00
997;DHT22;487;50.126;8.698;2023-07-09T16:13:43;34.50;1.00
997;DHT22;487;50.126;8.698;2023-07-09T16:16:13;34.50;1.00
997;DHT22;487;50.126;8.698;2023-07-09T16:18:43;34.40;1.00
997;DHT22;487;50.126;8.698;2023-07-09T16:21:23;34.40;1.00
997;DHT22;487;50.126;8.698;2023-07-09T16:23:52;34.40;1.00
997;DHT22;487;50.126;8.698;2023-07-09T16:26:22;34.40;1.00
997;DHT22;487;50.126;8.698;2023-07-09T16:28:54;34.50;1.00
997;DHT22;487;50.126;8.698;2023-07-09T16:31:22;34.50;1.00
997;DHT22;487;50.126;8.698;2023-07-09T16:33:50;34.50;1.00
997;DHT22;487;50.126;8.698;2023-07-09T16:36:18;34.50;1.00
997;DHT22;487;50.126;8.698;2023-07-09T16:38:46;34.50;1.00
997;DHT22;487;50.126;8.698;2023-07-09T16:41:16;34.50;1.00
997;DHT22;487;50.126;8.698;2023-07-09T16:43:45;34.60;1.00
997;DHT22;487;50.126;8.698;2023-07-09T16:46:15;34.60;1.00
997;DHT22;487;50.126;8.698;2023-07-09T16:48:44;34.60;1.00
997;DHT22;487;50.126;8.698;2023-07-09T16:51:12;34.70;1.00
997;DHT22;487;50.126;8.698;2023-07-09T16:53:40;34.70;1.00
997;DHT22;487;50.126;8.698;2023-07-09T16:56:09;34.60;1.00
997;DHT22;487;50.126;8.698;2023-07-09T16:58:38;34.60;1.00
997;DHT22;487;50.126;8.698;2023-07-09T17:01:08;34.60;1.00
997;DHT22;487;50.126;8.698;2023-07-09T17:03:36;34.50;1.00
997;DHT22;487;50.126;8.698;2023-07-09T17:06:04;34.50;1.00
997;DHT22;487;50.126;8.698;2023-07-09T17:08:32;34.40;1.00
997;DHT22;487;50.126;8.698;2023-07-09T17:11:02;34.30;1.00
997;DHT22;487;50.126;8.698;2023-07-09T17:13:30;34.20;1.00
997;DHT22;487;50.126;8.698;2023-07-09T17:15:59;34.10;1.00
997;DHT22;487;50.126;8.698;2023-07-09T17:18:30;34.00;1.00
997;DHT22;487;50.126;8.698;2023-07-09T17:21:01;33.90;1.00
997;DHT22;487;50.126;8.698;2023-07-09T17:23:29;33.70;1.00
997;DHT22;487;50.126;8.698;2023-07-09T17:25:59;33.50;1.00
997;DHT22;487;50.126;8.698;2023-07-09T17:28:29;33.40;1.00
997;DHT22;487;50.126;8.698;2023-07-09T17:30:59;33.20;1.00
997;DHT22;487;50.126;8.698;2023-07-09T17:33:28;32.90;1.00
997;DHT22;487;50.126;8.698;2023-07-09T17:35:58;32.70;1.00
997;DHT22;487;50.126;8.698;2023-07-09T17:38:31;32.60;1.00
997;DHT22;487;50.126;8.698;2023-07-09T17:41:00;32.50;1.00
997;DHT22;487;50.126;8.698;2023-07-09T17:43:28;32.40;1.00
997;DHT22;487;50.126;8.698;2023-07-09T17:45:56;32.30;1.00
997;DHT22;487;50.126;8.698;2023-07-09T17:48:26;32.10;1.00
997;DHT22;487;50.126;8.698;2023-07-09T17:50:56;32.00;1.00
997;DHT22;487;50.126;8.698;2023-07-09T17:53:26;31.90;1.00
997;DHT22;487;50.126;8.698;2023-07-09T17:55:55;31.70;1.00
997;DHT22;487;50.126;8.698;2023-07-09T17:58:25;31.60;1.00
997;DHT22;487;50.126;8.698;2023-07-09T18:00:56;31.50;1.00
997;DHT22;487;50.126;8.698;2023-07-09T18:03:26;31.40;1.00
997;DHT22;487;50.126;8.698;2023-07-09T18:05:55;31.30;1.00
997;DHT22;487;50.126;8.698;2023-07-09T18:08:23;31.20;1.00
997;DHT22;487;50.126;8.698;2023-07-09T18:10:52;31.00;1.00
997;DHT22;487;50.126;8.698;2023-07-09T18:13:23;30.90;1.00
997;DHT22;487;50.126;8.698;2023-07-09T18:15:53;30.90;1.00
997;DHT22;487;50.126;8.698;2023-07-09T18:18:21;30.80;1.00
997;DHT22;487;50.126;8.698;2023-07-09T18:20:49;30.70;1.00
997;DHT22;487;50.126;8.698;2023-07-09T18:23:18;30.80;1.00
997;DHT22;487;50.126;8.698;2023-07-09T18:25:48;30.70;1.00
997;DHT22;487;50.126;8.698;2023-07-09T18:28:20;30.70;1.00
997;DHT22;487;50.126;8.698;2023-07-09T18:30:49;30.60;1.00
997;DHT22;487;50.126;8.698;2023-07-09T18:33:37;30.40;1.00
997;DHT22;487;50.126;8.698;2023-07-09T18:36:05;30.30;1.00
997;DHT22;487;50.126;8.698;2023-07-09T18:38:34;30.20;1.00
997;DHT22;487;50.126;8.698;2023-07-09T18:41:07;30.20;1.00
997;DHT22;487;50.126;8.698;2023-07-09T18:43:35;30.10;1.00
997;DHT22;487;50.126;8.698;2023-07-09T18:46:03;30.10;1.00
997;DHT22;487;50.126;8.698;2023-07-09T18:48:32;30.10;1.00
997;DHT22;487;50.126;8.698;2023-07-09T18:51:00;30.00;1.00
997;DHT22;487;50.126;8.698;2023-07-09T18:55:58;29.70;1.00
997;DHT22;487;50.126;8.698;2023-07-09T18:58:28;29.70;1.00
997;DHT22;487;50.126;8.698;2023-07-09T19:00:57;29.60;1.00
997;DHT22;487;50.126;8.698;2023-07-09T19:03:32;29.60;1.00
997;DHT22;487;50.126;8.698;2023-07-09T19:06:02;29.60;1.00
997;DHT22;487;50.126;8.698;2023-07-09T19:08:31;29.50;1.00
997;DHT22;487;50.126;8.698;2023-07-09T19:11:03;29.40;1.00
997;DHT22;487;50.126;8.698;2023-07-09T19:13:31;29.40;1.00
997;DHT22;487;50.126;8.698;2023-07-09T19:16:00;29.40;1.00
997;DHT22;487;50.126;8.698;2023-07-09T19:18:32;29.40;1.00
997;DHT22;487;50.126;8.698;2023-07-09T19:21:03;29.30;1.00
997;DHT22;487;50.126;8.698;2023-07-09T19:23:31;29.30;1.00
997;DHT22;487;50.126;8.698;2023-07-09T19:25:59;29.30;1.00
997;DHT22;487;50.126;8.698;2023-07-09T19:28:29;29.20;1.00
997;DHT22;487;50.126;8.698;2023-07-09T19:30:57;29.10;1.00
997;DHT22;487;50.126;8.698;2023-07-09T19:33:34;29.10;1.00
997;DHT22;487;50.126;8.698;2023-07-09T19:36:02;29.10;1.00
997;DHT22;487;50.126;8.698;2023-07-09T19:38:32;29.20;1.00
997;DHT22;487;50.126;8.698;2023-07-09T19:41:00;29.10;1.00
997;DHT22;487;50.126;8.698;2023-07-09T19:45:57;29.00;1.00
997;DHT22;487;50.126;8.698;2023-07-09T19:48:25;29.00;1.00
997;DHT22;487;50.126;8.698;2023-07-09T19:50:54;29.00;1.00
997;DHT22;487;50.126;8.698;2023-07-09T19:53:24;29.00;1.00
997;DHT22;487;50.126;8.698;2023-07-09T19:55:55;29.00;1.00
997;DHT22;487;50.126;8.698;2023-07-09T19:58:23;29.00;1.00
997;DHT22;487;50.126;8.698;2023-07-09T20:00:52;29.00;1.00
997;DHT22;487;50.126;8.698;2023-07-09T20:05:53;29.10;1.00
997;DHT22;487;50.126;8.698;2023-07-09T20:08:22;29.00;1.00
997;DHT22;487;50.126;8.698;2023-07-09T20:10:52;29.00;1.00
997;DHT22;487;50.126;8.698;2023-07-09T20:13:23;29.10;1.00
997;DHT22;487;50.126;8.698;2023-07-09T20:15:53;29.10;1.00
997;DHT22;487;50.126;8.698;2023-07-09T20:18:22;29.10;1.00
997;DHT22;487;50.126;8.698;2023-07-09T20:20:53;29.10;1.00
997;DHT22;487;50.126;8.698;2023-07-09T20:23:22;29.10;1.00
997;DHT22;487;50.126;8.698;2023-07-09T20:25:51;29.10;1.00
997;DHT22;487;50.126;8.698;2023-07-09T20:28:21;29.00;1.00
997;DHT22;487;50.126;8.698;2023-07-09T20:30:50;29.00;1.00
997;DHT22;487;50.126;8.698;2023-07-09T20:33:22;29.00;1.00
997;DHT22;487;50.126;8.698;2023-07-09T20:35:51;29.00;1.00
997;DHT22;487;50.126;8.698;2023-07-09T20:38:20;29.00;1.00
997;DHT22;487;50.126;8.698;2023-07-09T20:40:50;29.00;1.00
997;DHT22;487;50.126;8.698;2023-07-09T20:43:21;28.90;1.00
997;DHT22;487;50.126;8.698;2023-07-09T20:45:49;28.90;1.00
997;DHT22;487;50.126;8.698;2023-07-09T20:48:18;28.90;1.00
997;DHT22;487;50.126;8.698;2023-07-09T20:50:48;28.90;1.00
997;DHT22;487;50.126;8.698;2023-07-09T20:53:17;28.90;1.00
997;DHT22;487;50.126;8.698;2023-07-09T20:55:47;28.90;1.00
997;DHT22;487;50.126;8.698;2023-07-09T20:58:16;28.80;1.00
997;DHT22;487;50.126;8.698;2023-07-09T21:00:45;28.80;1.00
997;DHT22;487;50.126;8.698;2023-07-09T21:03:25;28.70;1.00
997;DHT22;487;50.126;8.698;2023-07-09T21:05:55;28.70;1.00
997;DHT22;487;50.126;8.698;2023-07-09T21:08:25;28.70;1.00
997;DHT22;487;50.126;8.698;2023-07-09T21:10:54;28.60;1.00
997;DHT22;487;50.126;8.698;2023-07-09T21:13:23;28.60;1.00
997;DHT22;487;50.126;8.698;2023-07-09T21:15:53;28.50;1.00
997;DHT22;487;50.126;8.698;2023-07-09T21:18:22;28.50;1.00
997;DHT22;487;50.126;8.698;2023-07-09T21:20:55;28.50;1.00
997;DHT22;487;50.126;8.698;2023-07-09T21:23:26;28.50;1.00
997;DHT22;487;50.126;8.698;2023-07-09T21:25:54;28.50;1.00
997;DHT22;487;50.126;8.698;2023-07-09T21:28:22;28.40;1.00
997;DHT22;487;50.126;8.698;2023-07-09T21:30:50;28.40;1.00
997;DHT22;487;50.126;8.698;2023-07-09T21:33:22;28.40;1.00
997;DHT22;487;50.126;8.698;2023-07-09T21:35:54;28.40;1.00
997;DHT22;487;50.126;8.698;2023-07-09T21:38:25;28.40;1.00
997;DHT22;487;50.126;8.698;2023-07-09T21:40:53;28.40;1.00
997;DHT22;487;50.126;8.698;2023-07-09T21:43:21;28.40;1.00
997;DHT22;487;50.126;8.698;2023-07-09T21:45:53;28.40;1.00
997;DHT22;487;50.126;8.698;2023-07-09T21:48:23;28.40;1.00
997;DHT22;487;50.126;8.698;2023-07-09T21:50:52;28.40;1.00
997;DHT22;487;50.126;8.698;2023-07-09T21:53:23;28.30;1.00
997;DHT22;487;50.126;8.698;2023-07-09T21:58:39;28.30;1.00
997;DHT22;487;50.126;8.698;2023-07-09T22:01:13;28.30;1.00
997;DHT22;487;50.126;8.698;2023-07-09T22:03:41;28.30;1.00
997;DHT22;487;50.126;8.698;2023-07-09T22:06:10;28.20;1.00
997;DHT22;487;50.126;8.698;2023-07-09T22:08:40;28.20;1.00
997;DHT22;487;50.126;8.698;2023-07-09T22:11:20;28.20;1.00
997;DHT22;487;50.126;8.698;2023-07-09T22:13:49;28.30;1.00
997;DHT22;487;50.126;8.698;2023-07-09T22:16:23;28.30;1.00
997;DHT22;487;50.126;8.698;2023-07-09T22:18:52;28.20;1.00
997;DHT22;487;50.126;8.698;2023-07-09T22:23:51;28.20;1.00
997;DHT22;487;50.126;8.698;2023-07-09T22:26:20;28.10;1.00
997;DHT22;487;50.126;8.698;2023-07-09T22:28:48;28.10;1.00
997;DHT22;487;50.126;8.698;2023-07-09T22:31:16;28.00;1.00
997;DHT22;487;50.126;8.698;2023-07-09T22:33:44;28.00;1.00
997;DHT22;487;50.126;8.698;2023-07-09T22:36:12;28.00;1.00
997;DHT22;487;50.126;8.698;2023-07-09T22:38:40;28.00;1.00
997;DHT22;487;50.126;8.698;2023-07-09T22:41:09;28.00;1.00
997;DHT22;487;50.126;8.698;2023-07-09T22:46:09;28.10;1.00
997;DHT22;487;50.126;8.698;2023-07-09T22:51:10;28.10;1.00
997;DHT22;487;50.126;8.698;2023-07-09T22:56:08;28.10;1.00
997;DHT22;487;50.126;8.698;2023-07-09T22:58:36;28.10;1.00
997;DHT22;487;50.126;8.698;2023-07-09T23:01:12;28.10;1.00
997;DHT22;487;50.126;8.698;2023-07-09T23:03:42;28.10;1.00
997;DHT22;487;50.126;8.698;2023-07-09T23:06:12;28.10;1.00
997;DHT22;487;50.126;8.698;2023-07-09T23:11:13;27.80;1.00
997;DHT22;487;50.126;8.698;2023-07-09T23:16:13;27.70;1.00
997;DHT22;487;50.126;8.698;2023-07-09T23:21:12;27.80;1.00
997;DHT22;487;50.126;8.698;2023-07-09T23:23:40;27.80;1.00
997;DHT22;487;50.126;8.698;2023-07-09T23:26:11;27.80;1.00
997;DHT22;487;50.126;8.698;2023-07-09T23:28:39;27.80;1.00
997;DHT22;487;50.126;8.698;2023-07-09T23:31:22;27.80;1.00
997;DHT22;487;50.126;8.698;2023-07-09T23:33:51;27.70;1.00
997;DHT22;487;50.126;8.698;2023-07-09T23:36:19;27.70;1.00
997;DHT22;487;50.126;8.698;2023-07-09T23:41:24;27.60;1.00
997;DHT22;487;50.126;8.698;2023-07-09T23:43:55;26.00;1.00
997;DHT22;487;50.126;8.698;2023-07-09T23:46:25;27.60;1.00
997;DHT22;487;50.126;8.698;2023-07-09T23:48:55;27.60;1.00
997;DHT22;487;50.126;8.698;2023-07-09T23:54:07;27.60;1.00
997;DHT22;487;50.126;8.698;2023-07-09T23:56:36;27.60;1.00
997;DHT22;487;50.126;8.698;2023-07-09T23:59:05;27.60;1.00
